Arenzville, Illinois
Current Conditions -  °F | °C
As of 12:55 AM on Monday 22 Dec 2014 (Local Time) from KIJX Reporting Station
Overcast Overcast  
Wind Chill: 33°   Ceiling: 4200
Heat Index: 40°   Visibility: 10mi
Dew Point: 33°   Wind: 12mph
Humidity: 75%   Direction: 140°SE
Pressure: 29.91"   Gusts: NA
Location:  39.88°N, 90.37°W
Report Text: KIJX 220655Z AUTO 14010KT 10SM OVC042 05/01 A2991 RMK AO2 T00450005
Loading
Personal Weather Stations






























Interactive Weather Map New forecast layout! Learn more

10-Day Weather Forecast

Advertisements
Track Severe Weather on mobile